createdAt,value
2024-04-15T00:04:48.619Z,3.00
2024-04-15T00:14:53.570Z,2.58
2024-04-15T00:24:58.737Z,2.67
2024-04-15T00:35:03.708Z,2.80
2024-04-15T00:45:32.413Z,2.35
2024-04-15T00:55:39.055Z,2.83
2024-04-15T01:05:44.056Z,3.47
2024-04-15T01:15:49.095Z,3.42
2024-04-15T01:25:54.527Z,4.10
2024-04-15T01:35:59.452Z,4.40
2024-04-15T01:46:04.565Z,5.20
2024-04-15T01:56:09.712Z,5.03
2024-04-15T02:06:14.758Z,5.78
2024-04-15T02:16:19.761Z,6.00
2024-04-15T02:26:24.649Z,5.95
2024-04-15T02:36:29.576Z,5.65
2024-04-15T02:46:34.465Z,4.90
2024-04-15T02:56:39.368Z,4.97
2024-04-15T03:06:44.314Z,5.18
2024-04-15T03:16:49.282Z,6.03
2024-04-15T03:26:54.408Z,4.47
2024-04-15T03:36:59.428Z,4.00
2024-04-15T03:47:04.408Z,4.13
2024-04-15T03:57:10.080Z,3.95
2024-04-15T04:07:15.192Z,4.20
2024-04-15T04:17:20.363Z,5.22
2024-04-15T04:27:25.289Z,4.50
2024-04-15T04:37:30.231Z,4.20
2024-04-15T04:47:35.807Z,5.00
2024-04-15T04:57:40.722Z,5.35
2024-04-15T05:07:45.675Z,4.97
2024-04-15T05:17:50.739Z,4.82
2024-04-15T05:27:57.989Z,4.57
2024-04-15T05:38:03.016Z,4.70
2024-04-15T05:48:09.137Z,5.32
2024-04-15T05:58:14.364Z,4.50
2024-04-15T06:08:19.378Z,4.40
2024-04-15T06:18:24.309Z,5.00
2024-04-15T06:28:29.422Z,3.33
2024-04-15T06:38:34.505Z,2.83
2024-04-15T06:48:42.739Z,2.50
2024-04-15T06:58:48.090Z,2.08
2024-04-15T07:08:53.042Z,1.70
2024-04-15T07:18:58.050Z,1.50
2024-04-15T07:29:03.084Z,1.13
2024-04-15T07:39:08.104Z,0.90
2024-04-15T07:49:13.054Z,1.42
2024-04-15T07:59:17.936Z,1.00
2024-04-15T08:09:22.908Z,1.13
2024-04-15T08:19:31.670Z,1.10
2024-04-15T08:29:37.114Z,0.80
2024-04-15T08:39:43.539Z,0.75
2024-04-15T08:49:48.600Z,0.82
2024-04-15T08:59:54.203Z,1.20
2024-04-15T09:09:59.134Z,0.80
2024-04-15T09:20:04.191Z,0.70
2024-04-15T09:30:10.976Z,0.60
2024-04-15T09:40:20.222Z,0.90
2024-04-15T09:50:26.210Z,1.05
2024-04-15T10:00:31.201Z,0.90
2024-04-15T10:10:36.752Z,0.60
2024-04-15T10:20:44.075Z,0.63
2024-04-15T10:30:52.808Z,0.70
2024-04-15T10:40:57.929Z,0.70
2024-04-15T10:51:02.891Z,0.50
2024-04-15T11:01:08.163Z,0.70
2024-04-15T11:11:14.046Z,0.70
2024-04-15T11:21:19.049Z,0.57
2024-04-15T11:31:24.304Z,0.88
2024-04-15T11:41:29.230Z,0.52
2024-04-15T11:51:34.314Z,0.70
2024-04-15T12:01:39.550Z,0.90
2024-04-15T12:11:44.691Z,0.70
2024-04-15T12:21:50.356Z,0.60
2024-04-15T12:31:55.782Z,0.70
2024-04-15T12:42:02.101Z,0.90
2024-04-15T12:52:07.356Z,0.60
2024-04-15T13:02:12.587Z,0.77
2024-04-15T13:12:17.780Z,0.70
2024-04-15T13:22:23.028Z,0.90
2024-04-15T13:32:28.100Z,0.60
2024-04-15T13:42:33.865Z,0.60
2024-04-15T13:52:39.984Z,1.10
2024-04-15T14:02:45.158Z,1.00
2024-04-15T14:12:51.341Z,0.52
2024-04-15T14:22:56.797Z,0.57
2024-04-15T14:33:02.135Z,0.80
2024-04-15T14:43:08.079Z,0.80
2024-04-15T14:53:13.603Z,0.55
2024-04-15T15:03:18.595Z,0.73
2024-04-15T15:13:23.808Z,0.88
2024-04-15T15:23:29.665Z,0.90
2024-04-15T15:33:34.637Z,1.70
2024-04-15T15:43:40.206Z,0.63
2024-04-15T15:53:45.165Z,1.30
2024-04-15T16:03:51.575Z,0.65
2024-04-15T16:13:56.749Z,0.70
2024-04-15T16:24:01.786Z,0.90
2024-04-15T16:34:06.937Z,0.50
2024-04-15T16:44:11.922Z,0.32
2024-04-15T16:54:16.886Z,0.30
2024-04-15T17:04:22.275Z,2.33
2024-04-15T17:14:27.291Z,0.40
2024-04-15T17:24:32.302Z,0.40
2024-04-15T17:34:37.306Z,0.38
2024-04-15T17:44:43.616Z,0.30
2024-04-15T17:54:49.206Z,1.20
2024-04-15T18:04:54.244Z,0.40
2024-04-15T18:14:59.435Z,0.60
2024-04-15T18:25:04.459Z,0.70
2024-04-15T18:35:09.659Z,0.65
2024-04-15T18:45:14.980Z,0.60
2024-04-15T18:55:20.479Z,0.45
2024-04-15T19:05:25.560Z,0.45
2024-04-15T19:15:30.801Z,0.70
2024-04-15T19:25:36.044Z,0.95
2024-04-15T19:35:41.099Z,0.50
2024-04-15T19:45:46.302Z,0.40
2024-04-15T19:55:51.352Z,0.50
2024-04-15T20:05:56.436Z,0.55
2024-04-15T20:16:01.544Z,0.50
2024-04-15T20:26:08.429Z,0.38
2024-04-15T20:36:14.433Z,0.60
2024-04-15T20:46:19.430Z,0.75
2024-04-15T20:56:24.429Z,0.73
2024-04-15T21:06:29.473Z,0.70
2024-04-15T21:16:35.113Z,0.70
2024-04-15T21:26:41.025Z,0.60
2024-04-15T21:36:45.977Z,0.70
2024-04-15T21:46:50.982Z,0.45
2024-04-15T21:56:58.414Z,0.82
2024-04-15T22:07:05.277Z,0.80
2024-04-15T22:17:10.280Z,0.70
2024-04-15T22:27:15.215Z,0.60
2024-04-15T22:37:21.732Z,0.50
2024-04-15T22:47:26.799Z,0.60
2024-04-15T22:57:31.721Z,1.10
2024-04-15T23:07:36.927Z,0.90
2024-04-15T23:17:42.090Z,1.23
2024-04-15T23:27:47.185Z,0.82
2024-04-15T23:37:52.956Z,1.17
2024-04-15T23:47:57.983Z,0.77
2024-04-15T23:58:07.059Z,0.82
